Time;durP1;ratioP1;P1;durP2;ratioP2;P2;SDS_P1;SDS_P2;PMS_P1;PMS_P2;Temp;Humidity;BMP_temperature;BMP_pressure;BME280_temperature;BME280_humidity;BME280_pressure;Samples;Min_cycle;Max_cycle;Signal;HPM_P1;HPM_P2
2023/06/08 00:01:28;;;;;;;0.60;0.60;;;;;;;19.63;59.13;96457.88;10494515;28;20283;-32
2023/06/08 00:06:33;;;;;;;0.60;0.60;;;;;;;19.81;58.29;96457.72;10493577;28;20142;-32
2023/06/08 00:11:35;;;;;;;0.60;0.50;;;;;;;19.80;57.92;96456.03;10493815;28;20111;-33
2023/06/08 00:16:37;;;;;;;0.60;0.60;;;;;;;19.66;58.29;96448.53;10495421;28;20048;-33
2023/06/08 00:21:38;;;;;;;1.42;0.70;;;;;;;19.58;57.94;96444.41;10489096;28;20043;-32
2023/06/08 00:26:39;;;;;;;0.52;0.50;;;;;;;19.57;57.70;96442.69;10494915;28;20411;-34
2023/06/08 00:31:40;;;;;;;0.47;0.40;;;;;;;19.57;57.70;96442.69;10487256;28;20042;-32
2023/06/08 00:36:40;;;;;;;0.70;0.70;;;;;;;19.54;57.76;96438.50;10494689;28;20105;-33
2023/06/08 00:41:40;;;;;;;0.70;0.70;;;;;;;19.52;57.63;96431.75;10489429;28;20792;-33
2023/06/08 00:46:42;;;;;;;0.80;0.80;;;;;;;19.54;57.87;96432.56;10475060;28;20287;-32
2023/06/08 00:51:44;;;;;;;0.90;0.80;;;;;;;19.55;57.59;96434.25;10502220;28;20036;-32
2023/06/08 00:56:48;;;;;;;0.60;0.60;;;;;;;19.59;60.10;96431.69;10489539;28;20095;-33
2023/06/08 01:01:53;;;;;;;1.35;0.60;;;;;;;19.78;58.47;96422.19;10493470;28;20399;-33
2023/06/08 01:07:14;;;;;;;0.52;0.52;;;;;;;19.84;57.95;96417.06;10472728;28;20041;-34
2023/06/08 01:12:35;;;;;;;0.50;0.50;;;;;;;19.68;58.02;96418.06;10484136;28;20132;-33
2023/06/08 01:17:40;;;;;;;0.70;0.70;;;;;;;19.63;57.99;96414.72;10489736;28;20114;-32
2023/06/08 01:22:59;;;;;;;0.63;0.63;;;;;;;19.56;58.01;96408.00;10492581;28;20036;-33
2023/06/08 01:28:15;;;;;;;0.75;0.75;;;;;;;19.56;57.96;96416.47;10464983;28;20506;-32
2023/06/08 01:33:18;;;;;;;0.70;0.70;;;;;;;19.55;57.52;96414.81;10492817;28;20032;-33
2023/06/08 01:38:39;;;;;;;0.80;0.80;;;;;;;19.55;57.85;96419.03;10484693;28;20028;-33
2023/06/08 01:43:41;;;;;;;0.70;0.70;;;;;;;19.55;57.38;96419.03;10470981;28;20070;-32
2023/06/08 01:48:45;;;;;;;0.70;0.70;;;;;;;19.53;57.57;96413.13;10490803;28;20044;-33
2023/06/08 01:53:45;;;;;;;0.80;0.80;;;;;;;19.61;59.25;96424.06;10485751;28;20120;-32
2023/06/08 01:58:46;;;;;;;0.70;0.60;;;;;;;19.79;58.55;96413.72;10490834;28;20032;-33
2023/06/08 02:03:46;;;;;;;0.60;0.60;;;;;;;19.80;58.29;96407.78;10465376;28;20135;-32
2023/06/08 02:08:47;;;;;;;0.60;0.60;;;;;;;19.66;58.04;96407.91;10472860;28;20039;-32
2023/06/08 02:13:48;;;;;;;0.50;0.50;;;;;;;19.62;57.86;96411.34;10472352;28;20029;-32
2023/06/08 02:18:50;;;;;;;0.60;0.60;;;;;;;19.60;57.80;96414.75;10470785;28;20033;-33
2023/06/08 02:23:52;;;;;;;0.70;0.70;;;;;;;19.57;57.52;96414.75;10483201;28;20040;-32
2023/06/08 02:28:53;;;;;;;0.70;0.70;;;;;;;19.55;57.78;96424.09;10467978;28;20052;-32
2023/06/08 02:33:53;;;;;;;0.70;0.60;;;;;;;19.54;57.45;96420.75;10477808;28;20457;-33
2023/06/08 02:38:54;;;;;;;0.53;0.53;;;;;;;19.55;57.53;96421.56;10492692;28;20289;-32
2023/06/08 02:43:54;;;;;;;0.57;0.57;;;;;;;19.53;57.25;96411.44;10481126;28;20283;-32
2023/06/08 02:48:55;;;;;;;0.55;0.55;;;;;;;19.55;58.51;96421.56;10480122;28;20032;-33
2023/06/08 02:53:57;;;;;;;0.60;0.60;;;;;;;19.76;58.17;96423.91;10499686;28;20036;-32
2023/06/08 02:58:58;;;;;;;0.70;0.70;;;;;;;19.85;57.59;96413.66;10473909;28;20494;-33
2023/06/08 03:03:59;;;;;;;0.57;0.50;;;;;;;19.70;58.00;96423.97;10480279;28;20082;-33
2023/06/08 03:09:06;;;;;;;0.70;0.60;;;;;;;19.62;57.70;96415.56;10479700;28;20506;-32
2023/06/08 03:14:10;;;;;;;0.82;0.70;;;;;;;19.58;57.74;96408.84;10478120;28;20039;-33
2023/06/08 03:19:12;;;;;;;0.50;0.50;;;;;;;19.58;57.64;96409.69;10479971;28;20089;-33
2023/06/08 03:24:14;;;;;;;0.90;0.80;;;;;;;19.58;57.68;96413.94;10480312;28;20034;-32
2023/06/08 03:29:15;;;;;;;0.90;0.90;;;;;;;19.55;57.53;96413.94;10471353;28;20032;-33
2023/06/08 03:34:17;;;;;;;0.57;0.57;;;;;;;19.55;57.51;96408.88;10480467;28;20067;-32
2023/06/08 03:39:17;;;;;;;1.00;0.95;;;;;;;19.53;57.48;96406.38;10490165;28;20446;-33
2023/06/08 03:44:18;;;;;;;0.90;0.90;;;;;;;19.47;57.20;96408.09;10479726;28;20032;-33
2023/06/08 03:49:19;;;;;;;0.65;0.63;;;;;;;19.71;58.28;96418.03;10476159;28;20056;-33
2023/06/08 03:54:20;;;;;;;0.73;0.73;;;;;;;19.85;57.72;96411.13;10478286;28;20029;-32
2023/06/08 03:59:20;;;;;;;0.50;0.50;;;;;;;19.72;57.64;96407.00;10473168;28;20391;-32
2023/06/08 04:04:23;;;;;;;0.55;0.55;;;;;;;19.62;57.98;96406.28;10495897;28;20067;-32
2023/06/08 04:09:24;;;;;;;0.70;0.70;;;;;;;19.60;58.19;96423.19;10487718;28;20040;-32
2023/06/08 04:14:25;;;;;;;0.70;0.63;;;;;;;19.57;57.58;96424.91;10476204;28;20040;-33
2023/06/08 04:19:30;;;;;;;0.60;0.60;;;;;;;19.55;57.51;96416.47;10485387;28;20024;-32
2023/06/08 04:24:33;;;;;;;0.68;0.68;;;;;;;19.53;57.42;96408.91;10487055;28;20086;-33
2023/06/08 04:29:34;;;;;;;1.02;0.82;;;;;;;19.53;57.62;96410.59;10476796;28;20094;-31
2023/06/08 04:34:35;;;;;;;0.55;0.55;;;;;;;19.53;57.54;96410.59;10475018;28;20040;-33
2023/06/08 04:39:35;;;;;;;0.80;0.80;;;;;;;19.54;57.39;96414.81;10476574;28;20490;-33
2023/06/08 04:44:36;;;;;;;0.70;0.70;;;;;;;19.63;59.25;96412.19;10493257;28;20038;-33
2023/06/08 04:49:37;;;;;;;0.70;0.70;;;;;;;19.82;58.20;96413.66;10474594;28;20517;-33
2023/06/08 04:54:38;;;;;;;0.52;0.50;;;;;;;19.72;57.62;96417.16;10493650;28;20066;-32
2023/06/08 04:59:40;;;;;;;0.77;0.77;;;;;;;19.62;57.59;96424.06;10467208;28;20597;-35
2023/06/08 05:04:40;;;;;;;0.80;0.80;;;;;;;19.54;57.41;96420.75;10475691;28;20123;-33
2023/06/08 05:09:40;;;;;;;0.70;0.70;;;;;;;19.57;57.53;96432.53;10472235;28;20286;-33
2023/06/08 05:14:41;;;;;;;0.50;0.50;;;;;;;19.55;57.43;96429.19;10493495;28;20449;-34
2023/06/08 05:19:41;;;;;;;0.60;0.60;;;;;;;19.52;57.39;96436.84;10491679;28;20495;-34
2023/06/08 05:24:42;;;;;;;0.60;0.60;;;;;;;19.53;57.50;96441.06;10491415;28;20422;-32
2023/06/08 05:29:42;;;;;;;0.57;0.57;;;;;;;19.52;57.28;96439.38;10492298;28;20048;-33
2023/06/08 05:34:42;;;;;;;0.57;0.57;;;;;;;19.51;57.34;96433.44;10491023;28;20032;-33
2023/06/08 05:39:43;;;;;;;0.50;0.50;;;;;;;19.65;58.54;96430.78;10491985;28;20687;-33
2023/06/08 05:44:44;;;;;;;0.60;0.60;;;;;;;19.82;57.83;96424.69;10488128;28;20067;-32
2023/06/08 05:49:44;;;;;;;0.60;0.60;;;;;;;19.77;57.87;96433.22;10490312;28;20407;-33
2023/06/08 05:54:45;;;;;;;0.77;0.70;;;;;;;19.65;57.92;96439.25;10492255;28;20039;-34
2023/06/08 05:59:45;;;;;;;0.60;0.50;;;;;;;19.60;57.83;96435.06;10486697;28;20832;-34
2023/06/08 06:04:45;;;;;;;0.40;0.40;;;;;;;19.58;57.50;96430.00;10491833;28;20328;-32
2023/06/08 06:09:46;;;;;;;0.60;0.60;;;;;;;19.56;57.62;96436.78;10481937;28;20387;-33
2023/06/08 06:14:48;;;;;;;0.70;0.70;;;;;;;19.54;57.26;96435.13;10491237;28;20390;-33
2023/06/08 06:19:48;;;;;;;0.70;0.70;;;;;;;19.55;57.47;96429.19;10485272;28;20111;-34
2023/06/08 06:24:49;;;;;;;0.90;0.90;;;;;;;19.55;57.40;96426.63;10491219;28;20127;-32
2023/06/08 06:29:49;;;;;;;0.65;0.65;;;;;;;19.51;57.39;96427.53;10489958;28;20032;-32
2023/06/08 06:34:51;;;;;;;0.63;0.63;;;;;;;19.57;59.35;96432.53;10486598;28;20390;-33
2023/06/08 06:39:52;;;;;;;0.50;0.50;;;;;;;19.78;57.67;96422.19;10490959;28;20025;-33
2023/06/08 06:44:53;;;;;;;0.53;0.53;;;;;;;19.82;57.62;96423.84;10485261;28;20036;-33
2023/06/08 06:49:53;;;;;;;0.60;0.53;;;;;;;19.67;58.02;96422.28;10472589;28;20195;-33
2023/06/08 06:54:54;;;;;;;0.70;0.70;;;;;;;19.63;57.80;96429.94;10483641;28;20040;-34
2023/06/08 06:59:55;;;;;;;0.63;0.63;;;;;;;19.61;57.68;96431.66;10490577;28;20039;-34
2023/06/08 07:04:58;;;;;;;0.70;0.70;;;;;;;19.58;57.61;96434.25;10489353;28;20036;-33
2023/06/08 07:09:58;;;;;;;0.70;0.70;;;;;;;19.57;57.72;96433.41;10490270;28;20066;-32
2023/06/08 07:14:59;;;;;;;0.90;0.90;;;;;;;19.57;57.50;96433.41;10485386;28;20064;-32
2023/06/08 07:20:00;;;;;;;0.93;0.80;;;;;;;19.57;57.63;96433.41;10494936;28;20043;-34
2023/06/08 07:25:01;;;;;;;0.57;0.57;;;;;;;19.56;57.77;96430.84;10496165;28;20377;-32
2023/06/08 07:30:02;;;;;;;1.05;0.93;;;;;;;19.58;58.35;96439.31;10497201;28;20021;-32
2023/06/08 07:35:04;;;;;;;0.90;0.75;;;;;;;19.76;58.40;96439.97;10496323;28;20036;-33
2023/06/08 07:40:08;;;;;;;0.50;0.50;;;;;;;19.86;58.01;96441.56;10496399;28;20062;-32
2023/06/08 07:45:09;;;;;;;1.00;0.70;;;;;;;19.69;58.28;96427.38;10496789;28;20035;-33
2023/06/08 07:50:10;;;;;;;0.95;0.60;;;;;;;19.66;58.03;96438.38;10489522;28;20029;-34
2023/06/08 07:55:11;;;;;;;0.80;0.80;;;;;;;19.63;57.97;96437.56;10496376;28;20021;-32
2023/06/08 08:00:11;;;;;;;1.13;1.00;;;;;;;19.61;57.73;96434.22;10491442;28;20028;-32
2023/06/08 08:05:15;;;;;;;1.35;0.98;;;;;;;19.60;57.86;96432.53;10496278;28;20279;-33
2023/06/08 08:10:16;;;;;;;0.80;0.80;;;;;;;19.57;57.65;96422.38;10493970;28;20426;-33
2023/06/08 08:15:16;;;;;;;0.73;0.73;;;;;;;19.57;57.83;96422.38;10495356;28;20282;-33
2023/06/08 08:20:17;;;;;;;1.00;1.00;;;;;;;19.56;57.69;96413.09;10488798;28;20033;-33
2023/06/08 08:25:17;;;;;;;0.80;0.73;;;;;;;19.56;57.62;96410.53;10491086;28;20033;-33
2023/06/08 08:30:18;;;;;;;0.70;0.70;;;;;;;19.71;58.74;96415.47;10494094;28;20111;-32
2023/06/08 08:35:19;;;;;;;0.65;0.65;;;;;;;19.85;58.08;96403.50;10488281;28;20028;-32
2023/06/08 08:40:19;;;;;;;0.50;0.50;;;;;;;19.77;57.94;96411.19;10494361;28;20043;-33
2023/06/08 08:45:27;;;;;;;0.63;0.60;;;;;;;19.68;58.02;96412.97;10490614;28;20483;-33
2023/06/08 08:50:29;;;;;;;0.60;0.55;;;;;;;19.62;58.04;96407.97;10494743;28;20032;-32
2023/06/08 08:55:33;;;;;;;0.73;0.68;;;;;;;19.61;57.32;96414.72;10488854;28;20032;-34
2023/06/08 09:00:34;;;;;;;0.93;0.93;;;;;;;19.61;57.92;96418.97;10493981;28;20059;-33
2023/06/08 09:05:35;;;;;;;1.05;0.95;;;;;;;19.59;57.50;96418.16;10492143;28;20035;-32
2023/06/08 09:10:38;;;;;;;1.00;0.90;;;;;;;19.58;57.68;96417.31;10493420;28;20036;-32
2023/06/08 09:15:39;;;;;;;0.80;0.80;;;;;;;19.57;57.56;96408.00;10489166;28;20025;-32
2023/06/08 09:20:39;;;;;;;0.90;0.90;;;;;;;19.54;57.77;96397.03;10490848;28;20440;-32
2023/06/08 09:25:40;;;;;;;0.98;0.88;;;;;;;19.68;59.07;96396.03;10492794;28;20024;-33
2023/06/08 09:30:41;;;;;;;0.60;0.60;;;;;;;19.86;58.43;96397.56;10488603;28;20037;-34
2023/06/08 09:35:41;;;;;;;0.50;0.50;;;;;;;19.81;58.54;96392.53;10492440;28;20020;-32
2023/06/08 09:40:42;;;;;;;0.63;0.63;;;;;;;19.70;58.42;96381.66;10483961;28;20039;-33
2023/06/08 09:45:47;;;;;;;0.60;0.60;;;;;;;19.66;58.11;96379.97;10492223;28;20032;-33
2023/06/08 09:50:47;;;;;;;0.82;0.80;;;;;;;19.63;58.73;96377.47;10485942;28;20035;-33
2023/06/08 09:55:51;;;;;;;0.70;0.70;;;;;;;19.63;58.12;96377.47;10491615;28;20024;-33
2023/06/08 10:01:00;;;;;;;0.90;0.90;;;;;;;19.62;58.23;96380.88;10489908;28;20112;-32
2023/06/08 10:06:02;;;;;;;0.63;0.63;;;;;;;19.62;58.03;96373.25;10485938;28;20063;-34
2023/06/08 10:11:04;;;;;;;0.80;0.80;;;;;;;19.62;58.09;96375.78;10489897;28;20040;-33
2023/06/08 10:16:05;;;;;;;0.93;0.90;;;;;;;19.60;58.21;96369.03;10490029;28;20017;-32
2023/06/08 10:21:06;;;;;;;0.50;0.50;;;;;;;19.69;59.55;96366.41;10491205;28;20037;-31
2023/06/08 10:26:07;;;;;;;0.40;0.40;;;;;;;19.84;58.66;96359.47;10490289;28;20032;-34
2023/06/08 10:31:30;;;;;;;0.50;0.50;;;;;;;19.84;58.18;96346.75;10491008;28;20107;-33
2023/06/08 10:36:36;;;;;;;0.77;0.77;;;;;;;19.73;58.55;96340.09;10484726;28;20046;-32
2023/06/08 10:41:40;;;;;;;0.70;0.70;;;;;;;19.68;58.55;96345.22;10482591;28;20031;-33
2023/06/08 10:46:42;;;;;;;1.02;0.93;;;;;;;19.66;58.41;96335.97;10490775;28;20037;-33
2023/06/08 10:51:45;;;;;;;1.00;0.90;;;;;;;19.64;58.39;96330.03;10488011;28;20033;-33
2023/06/08 10:56:52;;;;;;;0.70;0.70;;;;;;;19.63;58.08;96325.84;10498624;28;20090;-33
2023/06/08 11:01:52;;;;;;;;;;;;;;;19.62;57.87;96330.09;10491051;28;20028;-33
2023/06/08 11:06:52;;;;;;;0.95;0.90;;;;;;;19.57;57.75;96324.19;10498152;28;20329;-33
2023/06/08 11:11:53;;;;;;;0.97;0.67;;;;;;;19.61;58.22;96328.38;10497484;28;20474;-33
2023/06/08 11:16:55;;;;;;;0.98;0.93;;;;;;;19.66;60.40;96325.81;10497891;28;20516;-34
2023/06/08 11:21:56;;;;;;;0.68;0.68;;;;;;;19.86;59.08;96323.88;10490471;28;20032;-34
2023/06/08 11:27:00;;;;;;;0.70;0.63;;;;;;;19.86;58.19;96321.34;10496574;28;20028;-33
2023/06/08 11:32:11;;;;;;;0.30;0.30;;;;;;;19.74;58.68;96313.84;10497337;28;20410;-32
2023/06/08 11:37:14;;;;;;;0.43;0.40;;;;;;;19.68;58.48;96308.84;10492062;28;20027;-32
2023/06/08 11:42:14;;;;;;;0.77;0.77;;;;;;;19.66;58.41;96300.44;10496750;28;20040;-32
2023/06/08 11:47:16;;;;;;;0.80;0.80;;;;;;;19.64;58.28;96302.13;10494964;28;20039;-33
2023/06/08 11:52:17;;;;;;;0.63;0.60;;;;;;;19.63;58.24;96301.28;10496311;28;20495;-33
2023/06/08 11:57:17;;;;;;;0.90;0.90;;;;;;;19.64;58.20;96302.97;10494190;28;20023;-33
2023/06/08 12:02:21;;;;;;;0.80;0.80;;;;;;;19.64;58.36;96304.66;10496150;28;20025;-33
2023/06/08 12:07:21;;;;;;;0.80;0.80;;;;;;;19.63;58.08;96300.44;10486694;28;20202;-33
2023/06/08 12:12:28;;;;;;;0.70;0.60;;;;;;;19.67;60.89;96297.03;10495028;28;20147;-33
2023/06/08 12:17:28;;;;;;;;;;;;;;;19.85;58.68;96289.19;10488830;28;20465;-34
2023/06/08 12:22:28;;;;;;;0.60;0.55;;;;;;;19.87;58.19;96290.84;10491446;28;19961;-33
2023/06/08 12:27:35;;;;;;;0.60;0.60;;;;;;;19.75;59.01;96293.53;10496438;28;20116;-33
2023/06/08 12:32:37;;;;;;;0.50;0.50;;;;;;;19.64;58.58;96285.19;10493951;28;20399;-32
2023/06/08 12:37:38;;;;;;;0.80;0.63;;;;;;;19.67;58.42;96297.84;10494643;28;20033;-33
2023/06/08 12:42:38;;;;;;;0.80;0.73;;;;;;;19.65;58.27;96293.63;10490221;28;20544;-33
2023/06/08 12:47:39;;;;;;;0.70;0.70;;;;;;;19.65;58.22;96293.63;10494373;28;20033;-33
2023/06/08 12:52:41;;;;;;;0.60;0.60;;;;;;;19.64;58.20;96304.66;10488716;28;20032;-33
2023/06/08 12:57:41;;;;;;;0.70;0.70;;;;;;;19.62;58.16;96314.84;10492205;28;20109;-33
2023/06/08 13:02:41;;;;;;;0.77;0.70;;;;;;;19.59;58.02;96307.25;10488343;28;20032;-33
2023/06/08 13:07:42;;;;;;;0.80;0.80;;;;;;;19.61;59.77;96322.47;10490424;28;20024;-33
2023/06/08 13:12:43;;;;;;;0.47;0.47;;;;;;;19.84;58.51;96325.59;10489705;28;20040;-33
2023/06/08 13:17:44;;;;;;;0.50;0.40;;;;;;;19.89;58.10;96323.84;10492597;28;20035;-31
2023/06/08 13:22:44;;;;;;;0.60;0.60;;;;;;;19.77;58.67;96319.72;10488250;28;20037;-33
2023/06/08 13:27:45;;;;;;;0.60;0.60;;;;;;;19.72;58.48;96325.72;10486972;28;20032;-33
2023/06/08 13:32:45;;;;;;;0.77;0.70;;;;;;;19.68;58.34;96319.03;10492880;28;20033;-32
2023/06/08 13:37:46;;;;;;;0.43;0.43;;;;;;;19.66;58.21;96308.03;10485661;28;20031;-33
2023/06/08 13:42:47;;;;;;;0.63;0.60;;;;;;;19.65;58.22;96311.41;10492661;28;20087;-35
2023/06/08 13:47:48;;;;;;;0.93;0.83;;;;;;;19.62;57.91;96302.16;10490951;28;20508;-32
2023/06/08 13:52:49;;;;;;;0.90;0.80;;;;;;;19.63;58.16;96298.75;10491407;28;20150;-33
2023/06/08 13:57:49;;;;;;;1.70;0.77;;;;;;;19.63;58.20;96290.28;10487972;28;20032;-32
2023/06/08 14:02:50;;;;;;;0.43;0.43;;;;;;;19.63;58.40;96286.06;10490395;28;20028;-32
2023/06/08 14:07:50;;;;;;;0.40;0.40;;;;;;;19.82;59.04;96281.56;10491417;28;20086;-32
2023/06/08 14:12:52;;;;;;;0.40;0.40;;;;;;;19.93;58.41;96264.53;10482747;28;20119;-33
2023/06/08 14:17:55;;;;;;;0.45;0.45;;;;;;;19.80;58.48;96258.75;10491635;28;20029;-32
2023/06/08 14:22:56;;;;;;;0.50;0.50;;;;;;;19.73;58.73;96238.50;10489697;28;20074;-33
2023/06/08 14:27:58;;;;;;;0.60;0.60;;;;;;;19.68;58.51;96237.75;10491400;28;20029;-32
2023/06/08 14:32:58;;;;;;;0.47;0.47;;;;;;;19.64;58.37;96236.09;10496401;28;20282;-32
2023/06/08 14:37:59;;;;;;;0.70;0.70;;;;;;;19.66;58.30;96240.28;10495127;28;20025;-32
2023/06/08 14:42:59;;;;;;;0.70;0.70;;;;;;;19.66;58.26;96234.41;10495632;28;20078;-33
2023/06/08 14:48:00;;;;;;;0.90;0.70;;;;;;;19.64;58.16;96220.84;10494549;28;20029;-32
2023/06/08 14:53:00;;;;;;;0.75;0.75;;;;;;;19.65;58.16;96217.44;10496062;28;20278;-33
2023/06/08 14:58:00;;;;;;;0.70;0.70;;;;;;;19.63;57.80;96209.00;10497495;28;20486;-33
2023/06/08 15:03:01;;;;;;;0.40;0.40;;;;;;;19.79;59.62;96213.03;10498613;28;20043;-34
2023/06/08 15:08:02;;;;;;;0.40;0.40;;;;;;;19.93;58.59;96213.72;10495428;28;20052;-33
2023/06/08 15:13:02;;;;;;;0.70;0.70;;;;;;;19.83;58.81;96202.81;10497692;28;20536;-32
2023/06/08 15:18:03;;;;;;;0.50;0.50;;;;;;;19.76;58.62;96205.47;10494278;28;20060;-33
2023/06/08 15:23:04;;;;;;;1.00;0.82;;;;;;;19.71;58.61;96202.13;10493071;28;20301;-33
2023/06/08 15:28:05;;;;;;;0.60;0.60;;;;;;;19.68;58.19;96197.94;10497502;28;20035;-33
2023/06/08 15:33:05;;;;;;;0.60;0.60;;;;;;;19.67;58.43;96195.44;10496515;28;20033;-33
2023/06/08 15:38:09;;;;;;;0.97;0.87;;;;;;;19.67;58.35;96190.34;10496814;28;20529;-33
2023/06/08 15:43:10;;;;;;;0.50;0.50;;;;;;;19.66;58.33;96183.59;10489972;28;20036;-33
2023/06/08 15:48:10;;;;;;;0.77;0.77;;;;;;;19.66;58.41;96184.41;10495620;28;20040;-34
2023/06/08 15:53:10;;;;;;;0.90;0.90;;;;;;;19.66;58.26;96181.06;10494258;28;20032;-32
2023/06/08 15:58:11;;;;;;;0.50;0.50;;;;;;;19.78;60.30;96180.88;10493109;28;20033;-33
2023/06/08 16:03:11;;;;;;;0.60;0.60;;;;;;;19.93;58.63;96168.78;10493700;28;20287;-33
2023/06/08 16:08:16;;;;;;;0.50;0.50;;;;;;;19.88;58.84;96178.19;10487522;28;20028;-32
2023/06/08 16:13:17;;;;;;;0.50;0.50;;;;;;;19.77;58.83;96171.59;10496057;28;20119;-33
2023/06/08 16:18:17;;;;;;;0.63;0.63;;;;;;;19.71;58.54;96167.44;10503104;28;20470;-32
2023/06/08 16:23:17;;;;;;;0.60;0.60;;;;;;;19.69;58.53;96158.97;10490022;28;20352;-33
2023/06/08 16:28:18;;;;;;;0.60;0.60;;;;;;;19.68;58.44;96166.63;10494869;28;20036;-32
2023/06/08 16:33:18;;;;;;;0.73;0.73;;;;;;;19.68;58.40;96156.47;10493759;28;20192;-33
2023/06/08 16:38:19;;;;;;;0.60;0.60;;;;;;;19.65;58.27;96156.50;10494732;28;20287;-32
2023/06/08 16:43:19;;;;;;;0.60;0.60;;;;;;;19.66;58.33;96163.28;10492180;28;20044;-33
2023/06/08 16:48:20;;;;;;;0.68;0.68;;;;;;;19.65;58.28;96154.81;10492683;28;20044;-32
2023/06/08 16:53:20;;;;;;;0.50;0.50;;;;;;;19.74;60.75;96156.38;10493753;28;20030;-32
2023/06/08 16:58:21;;;;;;;0.47;0.47;;;;;;;19.87;58.77;96143.50;10492399;28;20032;-33
2023/06/08 17:03:21;;;;;;;0.60;0.60;;;;;;;19.92;58.71;96151.06;10494144;28;20086;-32
2023/06/08 17:08:21;;;;;;;0.50;0.50;;;;;;;19.80;58.90;96151.22;10500618;28;20391;-33
2023/06/08 17:13:22;;;;;;;0.40;0.40;;;;;;;19.75;58.88;96150.47;10493081;28;20495;-32
2023/06/08 17:18:22;;;;;;;0.73;0.70;;;;;;;19.72;58.86;96153.03;10492122;28;20032;-34
2023/06/08 17:23:22;;;;;;;0.73;0.73;;;;;;;19.70;58.64;96154.75;10487887;28;20040;-32
2023/06/08 17:28:23;;;;;;;0.87;0.87;;;;;;;19.70;58.44;96149.66;10492675;28;20044;-33
2023/06/08 17:33:23;;;;;;;0.60;0.60;;;;;;;19.68;58.61;96151.41;10487848;28;20036;-32
2023/06/08 17:38:24;;;;;;;0.63;0.63;;;;;;;19.67;58.61;96152.25;10490224;28;20048;-33
2023/06/08 17:43:24;;;;;;;0.65;0.65;;;;;;;19.66;58.52;96142.97;10491015;28;20305;-32
2023/06/08 17:48:24;;;;;;;1.02;0.88;;;;;;;19.71;61.03;96148.81;10489050;28;20044;-33
2023/06/08 17:53:25;;;;;;;0.40;0.40;;;;;;;19.90;59.61;96147.69;10491931;28;20033;-32
2023/06/08 17:58:25;;;;;;;0.40;0.40;;;;;;;19.94;58.49;96160.31;10496232;28;20046;-33
2023/06/08 18:03:26;;;;;;;0.43;0.40;;;;;;;19.82;58.90;96160.50;10491590;28;20040;-32
2023/06/08 18:08:28;;;;;;;0.57;0.57;;;;;;;19.74;58.82;96151.28;10483222;28;20303;-33
2023/06/08 18:13:29;;;;;;;0.60;0.60;;;;;;;19.72;58.71;96153.03;10487787;28;20071;-32
2023/06/08 18:18:29;;;;;;;0.73;0.70;;;;;;;19.68;58.41;96157.28;10491859;28;20032;-33
2023/06/08 18:23:29;;;;;;;0.53;0.53;;;;;;;19.68;58.48;96164.09;10484247;28;20060;-32
2023/06/08 18:28:30;;;;;;;0.73;0.73;;;;;;;19.67;58.37;96170.03;10492314;28;20028;-32
2023/06/08 18:33:30;;;;;;;0.60;0.60;;;;;;;19.64;58.22;96178.53;10490950;28;20050;-33
2023/06/08 18:38:30;;;;;;;0.60;0.60;;;;;;;19.66;58.40;96183.59;10491412;28;20028;-33
2023/06/08 18:43:31;;;;;;;0.60;0.60;;;;;;;19.65;59.46;96187.81;10484362;28;20051;-33
2023/06/08 18:48:31;;;;;;;0.50;0.50;;;;;;;19.87;58.92;96188.38;10491662;28;20050;-32
2023/06/08 18:53:31;;;;;;;0.33;0.33;;;;;;;19.94;58.29;96185.72;10488177;28;20040;-34
2023/06/08 18:58:32;;;;;;;0.47;0.47;;;;;;;19.82;58.76;96200.28;10485646;28;20037;-33
2023/06/08 19:03:32;;;;;;;0.50;0.50;;;;;;;19.74;58.67;96202.09;10489729;28;20045;-32
2023/06/08 19:08:33;;;;;;;0.40;0.40;;;;;;;19.70;58.62;96205.53;10489129;28;20033;-32
2023/06/08 19:13:33;;;;;;;0.63;0.50;;;;;;;19.64;58.31;96200.53;10491204;28;20522;-33
2023/06/08 19:18:33;;;;;;;0.60;0.60;;;;;;;19.67;58.33;96210.66;10490982;28;20147;-32
2023/06/08 19:23:34;;;;;;;0.83;0.50;;;;;;;19.66;58.34;96219.16;10497698;28;20037;-33
2023/06/08 19:28:34;;;;;;;0.70;0.60;;;;;;;19.66;58.26;96216.63;10488598;28;20032;-32
2023/06/08 19:33:35;;;;;;;0.57;0.55;;;;;;;19.66;58.42;96226.78;10496563;28;20111;-32
2023/06/08 19:38:35;;;;;;;0.60;0.60;;;;;;;19.66;58.42;96235.22;10496922;28;20127;-33
2023/06/08 19:43:36;;;;;;;0.50;0.50;;;;;;;19.85;59.13;96253.63;10493077;28;20036;-33
2023/06/08 19:48:36;;;;;;;0.40;0.40;;;;;;;19.96;58.01;96260.25;10496740;28;20044;-34
2023/06/08 19:53:37;;;;;;;0.50;0.50;;;;;;;19.83;58.54;96268.03;10495210;28;20094;-33
2023/06/08 19:58:37;;;;;;;0.45;0.43;;;;;;;19.77;58.62;96265.56;10496715;28;20428;-33
2023/06/08 20:03:37;;;;;;;0.50;0.50;;;;;;;19.72;58.48;96272.38;10502732;28;20139;-33
2023/06/08 20:08:38;;;;;;;0.60;0.60;;;;;;;19.71;58.34;96274.09;10495049;28;20341;-33
2023/06/08 20:13:38;;;;;;;0.47;0.47;;;;;;;19.68;58.29;96284.28;10496036;28;20037;-33
2023/06/08 20:18:38;;;;;;;0.70;0.63;;;;;;;19.67;58.25;96282.59;10491021;28;20054;-33
2023/06/08 20:23:39;;;;;;;0.40;0.40;;;;;;;19.66;58.15;96282.66;10495666;28;20305;-32
2023/06/08 20:28:39;;;;;;;0.53;0.53;;;;;;;19.66;57.98;96295.34;10489471;28;20197;-33
2023/06/08 20:33:39;;;;;;;0.65;0.65;;;;;;;19.65;58.12;96298.72;10493295;28;20043;-32
2023/06/08 20:38:40;;;;;;;0.40;0.40;;;;;;;19.83;59.32;96295.97;10494033;28;20043;-32
2023/06/08 20:43:41;;;;;;;0.70;0.70;;;;;;;19.95;58.27;96295.81;10487558;28;20036;-34
2023/06/08 20:48:41;;;;;;;0.40;0.40;;;;;;;19.84;58.73;96301.03;10494293;28;20036;-33
2023/06/08 20:53:44;;;;;;;0.40;0.40;;;;;;;19.76;58.59;96294.38;10487601;28;20032;-33
2023/06/08 20:58:45;;;;;;;0.70;0.70;;;;;;;19.72;58.62;96282.56;10484588;28;20040;-34
2023/06/08 21:03:45;;;;;;;0.60;0.60;;;;;;;19.69;58.35;96282.59;10493993;28;20490;-33
2023/06/08 21:08:46;;;;;;;0.45;0.45;;;;;;;19.68;58.23;96288.53;10489955;28;20423;-33
2023/06/08 21:13:47;;;;;;;0.43;0.43;;;;;;;19.66;58.00;96290.25;10493614;28;20055;-33
2023/06/08 21:18:47;;;;;;;0.43;0.43;;;;;;;19.65;58.01;96286.00;10487190;28;20148;-32
2023/06/08 21:23:48;;;;;;;0.47;0.47;;;;;;;19.65;58.52;96283.47;10492932;28;20046;-32
2023/06/08 21:28:48;;;;;;;0.60;0.60;;;;;;;19.65;58.08;96283.47;10491346;28;20297;-32
2023/06/08 21:33:48;;;;;;;0.50;0.50;;;;;;;19.83;59.30;96283.28;10492576;28;20082;-33
2023/06/08 21:38:49;;;;;;;0.40;0.40;;;;;;;19.93;58.43;96280.59;10490612;28;20297;-33
2023/06/08 21:43:49;;;;;;;0.30;0.30;;;;;;;19.86;58.48;96283.25;10491299;28;20321;-34
2023/06/08 21:48:50;;;;;;;0.50;0.50;;;;;;;19.77;58.44;96275.72;10492105;28;20037;-33
2023/06/08 21:53:50;;;;;;;0.65;0.65;;;;;;;19.72;58.35;96278.31;10483539;28;20465;-33
2023/06/08 21:58:51;;;;;;;0.60;0.60;;;;;;;19.66;58.18;96269.94;10491682;28;20089;-33
2023/06/08 22:03:52;;;;;;;0.38;0.38;;;;;;;19.68;57.89;96275.84;10491001;28;20080;-33
2023/06/08 22:08:52;;;;;;;0.33;0.33;;;;;;;19.68;58.13;96273.31;10489017;28;20032;-33
2023/06/08 22:13:53;;;;;;;1.10;1.00;;;;;;;19.66;58.06;96280.09;10491961;28;20036;-33
2023/06/08 22:18:54;;;;;;;0.60;0.50;;;;;;;19.64;58.06;96277.56;10490149;28;20035;-32
2023/06/08 22:23:54;;;;;;;0.70;0.70;;;;;;;19.65;57.97;96278.41;10491287;28;20051;-33
2023/06/08 22:28:55;;;;;;;0.90;0.67;;;;;;;19.81;59.22;96279.91;10482647;28;20167;-33
2023/06/08 22:33:56;;;;;;;0.45;0.45;;;;;;;19.95;58.22;96289.06;10491111;28;20040;-32
2023/06/08 22:38:56;;;;;;;0.67;0.60;;;;;;;19.86;58.53;96283.25;10497102;28;20032;-34
2023/06/08 22:43:56;;;;;;;0.87;0.60;;;;;;;19.77;58.46;96280.81;10499478;28;20028;-33
2023/06/08 22:48:57;;;;;;;0.40;0.40;;;;;;;19.71;58.48;96283.41;10485411;28;20036;-33
2023/06/08 22:53:58;;;;;;;0.52;0.52;;;;;;;19.71;58.11;96286.81;10494496;28;20041;-33
2023/06/08 22:58:59;;;;;;;0.73;0.73;;;;;;;19.67;58.60;96276.69;10499632;28;20111;-32
2023/06/08 23:03:59;;;;;;;0.60;0.60;;;;;;;19.65;58.01;96288.56;10491494;28;20497;-33
2023/06/08 23:09:02;;;;;;;0.73;0.73;;;;;;;19.65;58.04;96283.47;10498002;28;20410;-33
2023/06/08 23:14:03;;;;;;;0.80;0.70;;;;;;;19.67;57.77;96286.88;10489804;28;20414;-33
2023/06/08 23:19:03;;;;;;;0.68;0.68;;;;;;;19.65;57.84;96289.41;10497978;28;20024;-33
2023/06/08 23:24:05;;;;;;;0.57;0.50;;;;;;;19.79;59.18;96284.16;10494069;28;20037;-33